Time;durP1;ratioP1;P1;durP2;ratioP2;P2;SDS_P1;SDS_P2;PMS_P1;PMS_P2;Temp;Humidity;BMP_temperature;BMP_pressure;BME280_temperature;BME280_humidity;BME280_pressure;Samples;Min_cycle;Max_cycle;Signal;HPM_P1;HPM_P2
2022/10/27 00:01:31;;;;;;;383.00;195.63;;;;;;;;;;4994861;28;20240;-51
2022/10/27 00:03:57;;;;;;;438.97;229.20;;;;;;;;;;4998755;28;20212;-50
2022/10/27 00:06:23;;;;;;;479.10;253.87;;;;;;;;;;4991273;28;20208;-49
2022/10/27 00:08:50;;;;;;;448.43;231.80;;;;;;;;;;4992651;28;20223;-50
2022/10/27 00:11:15;;;;;;;396.50;201.60;;;;;;;;;;5003078;28;20351;-50
2022/10/27 00:13:41;;;;;;;494.20;260.47;;;;;;;;;;4992079;28;20243;-51
2022/10/27 00:16:14;;;;;;;396.17;202.50;;;;;;;;;;4995684;28;20303;-50
2022/10/27 00:18:40;;;;;;;465.93;248.10;;;;;;;;;;5004497;28;20176;-50
2022/10/27 00:21:07;;;;;;;432.20;221.67;;;;;;;;;;4993730;28;21217;-50
2022/10/27 00:23:33;;;;;;;503.57;268.30;;;;;;;;;;4978501;28;20306;-50
2022/10/27 00:25:59;;;;;;;429.77;223.80;;;;;;;;;;4999209;28;20668;-50
2022/10/27 00:28:28;;;;;;;452.77;234.93;;;;;;;;;;5005890;28;20299;-50
2022/10/27 00:31:01;;;;;;;444.57;236.23;;;;;;;;;;5001619;28;20216;-51
2022/10/27 00:33:27;;;;;;;385.33;204.43;;;;;;;;;;5010847;28;20644;-51
2022/10/27 00:35:53;;;;;;;420.93;214.07;;;;;;;;;;5004849;28;21071;-50
2022/10/27 00:38:20;;;;;;;379.90;192.37;;;;;;;;;;4999075;28;20250;-50
2022/10/27 00:40:46;;;;;;;465.00;240.17;;;;;;;;;;5002178;28;20247;-50
2022/10/27 00:43:32;;;;;;;463.43;247.77;;;;;;;;;;5003893;28;20294;-51
2022/10/27 00:46:22;;;;;;;482.47;257.67;;;;;;;;;;4994010;28;20221;-51
2022/10/27 00:48:49;;;;;;;400.57;206.53;;;;;;;;;;4989664;28;20220;-48
2022/10/27 00:51:16;;;;;;;440.60;224.60;;;;;;;;;;5001614;28;20329;-48
2022/10/27 00:53:43;;;;;;;407.20;210.07;;;;;;;;;;5008229;28;20216;-48
2022/10/27 00:56:09;;;;;;;520.13;276.40;;;;;;;;;;5001735;28;20643;-50
2022/10/27 00:58:35;;;;;;;417.10;219.00;;;;;;;;;;5002662;28;20413;-51
2022/10/27 01:01:01;;;;;;;420.53;217.07;;;;;;;;;;5003317;28;20319;-51
2022/10/27 01:03:28;;;;;;;458.90;242.30;;;;;;;;;;4997548;28;20270;-51
2022/10/27 01:05:54;;;;;;;435.17;229.73;;;;;;;;;;4995150;28;20951;-51
2022/10/27 01:08:22;;;;;;;461.43;235.07;;;;;;;;;;5007878;28;20443;-51
2022/10/27 01:10:48;;;;;;;440.07;231.13;;;;;;;;;;4994728;28;20306;-51
2022/10/27 01:13:15;;;;;;;434.23;228.40;;;;;;;;;;4990654;28;20575;-51
2022/10/27 01:15:56;;;;;;;368.97;186.30;;;;;;;;;;4992437;28;20281;-50
2022/10/27 01:18:40;;;;;;;438.97;225.90;;;;;;;;;;5001330;28;20184;-50
2022/10/27 01:21:06;;;;;;;401.53;204.60;;;;;;;;;;5002420;28;20279;-51
2022/10/27 01:23:42;;;;;;;527.00;275.33;;;;;;;;;;4997217;28;20227;-51
2022/10/27 01:26:11;;;;;;;399.97;206.17;;;;;;;;;;4980662;28;20778;-51
2022/10/27 01:28:49;;;;;;;498.23;260.47;;;;;;;;;;4993982;28;22118;-51
2022/10/27 01:31:19;;;;;;;480.17;254.83;;;;;;;;;;5001878;28;20299;-51
2022/10/27 01:33:48;;;;;;;496.93;257.73;;;;;;;;;;5003948;28;20693;-51
2022/10/27 01:36:21;;;;;;;381.93;192.87;;;;;;;;;;5013533;28;20243;-50
2022/10/27 01:39:04;;;;;;;425.67;216.97;;;;;;;;;;5000695;28;20303;-51
2022/10/27 01:41:49;;;;;;;430.27;220.43;;;;;;;;;;5002524;28;20208;-50
2022/10/27 01:44:27;;;;;;;512.67;271.67;;;;;;;;;;4998506;28;21186;-50
2022/10/27 01:46:54;;;;;;;409.70;204.90;;;;;;;;;;5009541;28;20216;-51
2022/10/27 01:49:20;;;;;;;410.77;209.13;;;;;;;;;;5007917;28;20290;-48
2022/10/27 01:51:48;;;;;;;436.63;218.93;;;;;;;;;;4995816;28;20293;-48
2022/10/27 01:54:14;;;;;;;434.97;222.93;;;;;;;;;;4996688;28;20761;-48
2022/10/27 01:56:59;;;;;;;488.87;256.87;;;;;;;;;;4996410;28;20231;-48
2022/10/27 01:59:43;;;;;;;423.27;216.60;;;;;;;;;;5002823;28;20936;-48
2022/10/27 02:02:27;;;;;;;401.07;203.73;;;;;;;;;;4995248;28;20671;-48
2022/10/27 02:05:16;;;;;;;475.97;244.60;;;;;;;;;;5005140;28;20226;-48
2022/10/27 02:07:59;;;;;;;386.33;198.33;;;;;;;;;;5000484;28;20216;-48
2022/10/27 02:10:28;;;;;;;382.00;196.43;;;;;;;;;;5009019;28;20294;-48
2022/10/27 02:12:54;;;;;;;424.87;220.57;;;;;;;;;;5001914;28;20678;-48
2022/10/27 02:15:31;;;;;;;473.53;251.90;;;;;;;;;;4989309;28;20231;-48
2022/10/27 02:18:01;;;;;;;414.03;213.80;;;;;;;;;;4987049;28;20223;-48
2022/10/27 02:20:29;;;;;;;422.07;217.27;;;;;;;;;;4991799;28;20672;-48
2022/10/27 02:22:55;;;;;;;424.63;217.40;;;;;;;;;;4997110;28;20334;-48
2022/10/27 02:25:23;;;;;;;434.80;219.80;;;;;;;;;;5012296;28;20277;-48
2022/10/27 02:27:51;;;;;;;478.93;250.63;;;;;;;;;;5006093;28;20219;-48
2022/10/27 02:30:17;;;;;;;475.97;245.77;;;;;;;;;;4996920;28;20673;-51
2022/10/27 02:32:44;;;;;;;409.90;216.63;;;;;;;;;;5006870;28;20227;-50
2022/10/27 02:35:10;;;;;;;406.27;211.33;;;;;;;;;;4992482;28;20326;-50
2022/10/27 02:37:38;;;;;;;434.80;209.13;;;;;;;;;;5023416;23;20540;-55
2022/10/27 02:40:04;;;;;;;455.40;226.47;;;;;;;;;;5008784;28;20224;-55
2022/10/27 02:42:30;;;;;;;430.33;209.77;;;;;;;;;;5008127;28;20436;-55
2022/10/27 02:44:56;;;;;;;352.93;168.63;;;;;;;;;;5029463;28;20425;-55
2022/10/27 02:47:22;;;;;;;396.30;189.73;;;;;;;;;;5016999;28;20663;-55
2022/10/27 02:49:48;;;;;;;434.03;210.67;;;;;;;;;;4996074;28;20221;-55
2022/10/27 02:52:14;;;;;;;490.57;242.53;;;;;;;;;;4998081;28;20216;-55
2022/10/27 02:54:41;;;;;;;404.30;197.20;;;;;;;;;;5010539;28;20201;-55
2022/10/27 02:57:07;;;;;;;466.77;235.27;;;;;;;;;;5006955;28;20204;-55
2022/10/27 02:59:33;;;;;;;444.20;217.43;;;;;;;;;;5005232;28;20295;-55
2022/10/27 03:01:59;;;;;;;388.83;189.73;;;;;;;;;;5001628;28;20217;-55
2022/10/27 03:04:32;;;;;;;380.60;187.03;;;;;;;;;;5000999;28;20212;-55
2022/10/27 03:06:58;;;;;;;424.90;210.10;;;;;;;;;;4989809;28;20224;-55
2022/10/27 03:09:24;;;;;;;396.30;195.30;;;;;;;;;;4999976;28;20180;-55
2022/10/27 03:11:50;;;;;;;437.23;212.80;;;;;;;;;;4998825;28;20283;-55
2022/10/27 03:14:16;;;;;;;369.63;178.77;;;;;;;;;;5007822;28;20224;-56
2022/10/27 03:16:42;;;;;;;463.57;232.33;;;;;;;;;;5002376;28;20652;-55
2022/10/27 03:19:08;;;;;;;332.87;159.97;;;;;;;;;;5000958;28;21587;-56
2022/10/27 03:21:33;;;;;;;436.20;213.93;;;;;;;;;;5004101;28;20359;-55
2022/10/27 03:23:59;;;;;;;405.10;193.27;;;;;;;;;;5006314;28;20196;-56
2022/10/27 03:26:25;;;;;;;429.93;209.17;;;;;;;;;;5009329;28;20250;-55
2022/10/27 03:28:51;;;;;;;321.10;152.13;;;;;;;;;;5008356;28;20215;-55
2022/10/27 03:31:17;;;;;;;405.63;205.63;;;;;;;;;;5012278;28;20215;-55
2022/10/27 03:33:43;;;;;;;447.90;230.67;;;;;;;;;;5007344;28;21509;-55
2022/10/27 03:36:10;;;;;;;352.57;170.97;;;;;;;;;;4999956;28;20329;-55
2022/10/27 03:38:37;;;;;;;430.97;211.60;;;;;;;;;;4997410;28;20255;-55
2022/10/27 03:41:03;;;;;;;348.63;166.53;;;;;;;;;;4986821;28;20269;-55
2022/10/27 03:43:28;;;;;;;408.70;193.33;;;;;;;;;;5001528;28;20810;-55
2022/10/27 03:45:54;;;;;;;361.47;173.83;;;;;;;;;;5008503;28;20666;-55
2022/10/27 03:48:20;;;;;;;442.83;209.90;;;;;;;;;;5003188;28;20177;-55
2022/10/27 03:50:47;;;;;;;418.60;215.37;;;;;;;;;;5000475;28;21046;-55
2022/10/27 03:53:13;;;;;;;389.87;190.47;;;;;;;;;;4997565;28;20216;-55
2022/10/27 03:55:40;;;;;;;468.37;231.27;;;;;;;;;;4997865;28;20242;-55
2022/10/27 03:58:05;;;;;;;366.57;173.50;;;;;;;;;;5001904;28;20219;-55
2022/10/27 04:00:32;;;;;;;392.53;192.10;;;;;;;;;;5006983;28;20196;-55
2022/10/27 04:02:58;;;;;;;378.03;186.73;;;;;;;;;;5004907;28;20184;-55
2022/10/27 04:05:24;;;;;;;381.50;189.17;;;;;;;;;;4996804;28;20919;-55
2022/10/27 04:07:50;;;;;;;384.57;196.37;;;;;;;;;;4999257;28;20220;-55
2022/10/27 04:10:16;;;;;;;420.50;211.57;;;;;;;;;;5001599;28;20330;-55
2022/10/27 04:12:52;;;;;;;456.50;224.80;;;;;;;;;;5002825;28;20343;-55
2022/10/27 04:15:19;;;;;;;359.30;178.50;;;;;;;;;;5022063;28;20805;-55
2022/10/27 04:17:45;;;;;;;447.53;224.17;;;;;;;;;;5019728;28;20248;-55
2022/10/27 04:20:11;;;;;;;396.07;192.53;;;;;;;;;;5022353;28;20300;-56
2022/10/27 04:22:37;;;;;;;443.60;223.00;;;;;;;;;;5019364;28;20212;-55
2022/10/27 04:25:03;;;;;;;352.37;175.50;;;;;;;;;;5015729;28;21562;-55
2022/10/27 04:27:29;;;;;;;437.20;220.30;;;;;;;;;;5025991;28;20192;-55
2022/10/27 04:29:55;;;;;;;448.00;224.90;;;;;;;;;;5018676;28;20186;-56
2022/10/27 04:32:21;;;;;;;360.80;175.40;;;;;;;;;;5021537;28;20211;-55
2022/10/27 04:34:47;;;;;;;424.27;205.37;;;;;;;;;;5016595;28;20228;-55
2022/10/27 04:37:13;;;;;;;387.90;190.67;;;;;;;;;;4996070;28;20378;-62
2022/10/27 04:39:39;;;;;;;419.47;203.07;;;;;;;;;;5002147;28;20177;-55
2022/10/27 04:42:05;;;;;;;426.50;202.77;;;;;;;;;;5006192;28;20211;-55
2022/10/27 04:44:31;;;;;;;429.90;206.40;;;;;;;;;;5008184;28;20239;-55
2022/10/27 04:46:57;;;;;;;337.77;164.80;;;;;;;;;;5004662;28;20772;-55
2022/10/27 04:49:23;;;;;;;418.03;207.90;;;;;;;;;;5012177;28;20385;-55
2022/10/27 04:51:49;;;;;;;439.10;217.87;;;;;;;;;;5023264;28;20222;-56
2022/10/27 04:54:18;;;;;;;424.70;214.90;;;;;;;;;;5032598;28;20180;-55
2022/10/27 04:56:43;;;;;;;383.37;181.53;;;;;;;;;;5027448;28;20772;-55
2022/10/27 04:59:10;;;;;;;360.37;179.13;;;;;;;;;;5019168;28;20405;-55
2022/10/27 05:01:36;;;;;;;373.20;179.80;;;;;;;;;;5019739;28;20594;-55
2022/10/27 05:04:02;;;;;;;389.37;191.93;;;;;;;;;;5031911;28;20290;-55
2022/10/27 05:06:28;;;;;;;472.07;230.67;;;;;;;;;;5017798;28;20378;-55
2022/10/27 05:08:54;;;;;;;441.57;217.13;;;;;;;;;;5023035;28;20187;-55
2022/10/27 05:11:20;;;;;;;407.87;202.50;;;;;;;;;;5026564;28;20706;-55
2022/10/27 05:13:49;;;;;;;413.97;202.90;;;;;;;;;;5032296;28;20344;-55
2022/10/27 05:16:15;;;;;;;363.67;178.50;;;;;;;;;;5024527;28;20698;-55
2022/10/27 05:18:41;;;;;;;415.10;201.43;;;;;;;;;;5027761;28;20259;-55
2022/10/27 05:21:07;;;;;;;405.77;197.20;;;;;;;;;;5025560;28;20260;-55
2022/10/27 05:23:33;;;;;;;429.87;216.83;;;;;;;;;;5030821;28;20298;-55
2022/10/27 05:25:59;;;;;;;413.77;199.43;;;;;;;;;;5014533;28;20847;-55
2022/10/27 05:28:25;;;;;;;431.03;213.27;;;;;;;;;;5000058;28;20397;-55
2022/10/27 05:30:55;;;;;;;352.37;165.37;;;;;;;;;;5013238;28;20244;-56
2022/10/27 05:33:21;;;;;;;444.53;219.67;;;;;;;;;;5014293;28;20249;-55
2022/10/27 05:35:48;;;;;;;480.13;233.30;;;;;;;;;;5026043;28;20872;-56
2022/10/27 05:38:14;;;;;;;462.23;226.70;;;;;;;;;;5028868;28;20223;-57
2022/10/27 05:40:40;;;;;;;424.80;217.67;;;;;;;;;;5015525;28;20310;-56
2022/10/27 05:43:06;;;;;;;430.60;219.40;;;;;;;;;;5036935;28;20229;-59
2022/10/27 05:45:33;;;;;;;418.40;208.13;;;;;;;;;;5006260;28;20683;-56
2022/10/27 05:48:00;;;;;;;446.27;223.57;;;;;;;;;;4989328;28;20184;-55
2022/10/27 05:50:26;;;;;;;458.20;228.13;;;;;;;;;;4993880;28;20226;-55
2022/10/27 05:52:52;;;;;;;348.73;174.30;;;;;;;;;;5016328;28;20385;-55
2022/10/27 05:55:18;;;;;;;447.20;223.50;;;;;;;;;;5022047;28;20242;-55
2022/10/27 05:58:14;;;;;;;387.93;188.67;;;;;;;;;;5016593;28;20219;-55
2022/10/27 06:00:40;;;;;;;373.20;181.77;;;;;;;;;;5013178;28;20194;-55
2022/10/27 06:03:07;;;;;;;477.30;245.17;;;;;;;;;;5021110;28;20313;-55
2022/10/27 06:05:35;;;;;;;393.93;191.77;;;;;;;;;;5031532;28;20597;-56
2022/10/27 06:08:01;;;;;;;358.40;171.83;;;;;;;;;;5036690;28;20220;-57
2022/10/27 06:10:28;;;;;;;332.07;160.97;;;;;;;;;;5028239;28;20243;-56
2022/10/27 06:13:00;;;;;;;446.33;223.70;;;;;;;;;;5019069;28;20215;-57
2022/10/27 06:15:26;;;;;;;402.33;192.17;;;;;;;;;;5015201;28;20708;-56
2022/10/27 06:17:52;;;;;;;333.00;162.43;;;;;;;;;;5011477;28;20271;-56
2022/10/27 06:20:18;;;;;;;416.47;200.77;;;;;;;;;;5012199;28;20379;-56
2022/10/27 06:22:47;;;;;;;388.53;192.57;;;;;;;;;;5008704;28;20766;-56
2022/10/27 06:25:13;;;;;;;332.87;157.73;;;;;;;;;;5013275;28;20213;-56
2022/10/27 06:27:39;;;;;;;385.00;188.93;;;;;;;;;;5017900;28;20259;-56
2022/10/27 06:30:05;;;;;;;355.43;180.27;;;;;;;;;;5026198;28;20176;-56
2022/10/27 06:32:41;;;;;;;357.50;177.27;;;;;;;;;;5028077;28;20692;-57
2022/10/27 06:35:08;;;;;;;327.90;159.57;;;;;;;;;;5013799;28;20281;-54
2022/10/27 06:37:36;;;;;;;341.40;165.47;;;;;;;;;;5019721;28;20626;-54
2022/10/27 06:40:02;;;;;;;432.10;214.80;;;;;;;;;;5014493;28;20638;-54
2022/10/27 06:42:28;;;;;;;399.80;194.50;;;;;;;;;;5018028;28;20188;-54
2022/10/27 06:44:54;;;;;;;437.83;219.13;;;;;;;;;;5012402;28;20597;-57
2022/10/27 06:47:20;;;;;;;403.13;188.70;;;;;;;;;;5007619;28;20259;-57
2022/10/27 06:49:46;;;;;;;327.90;160.40;;;;;;;;;;5008431;28;20330;-57
2022/10/27 06:52:12;;;;;;;354.90;170.07;;;;;;;;;;5015598;28;20226;-57
2022/10/27 06:54:38;;;;;;;405.77;195.40;;;;;;;;;;5027898;28;20204;-57
2022/10/27 06:57:05;;;;;;;346.73;164.50;;;;;;;;;;5028566;28;20203;-56
2022/10/27 06:59:34;;;;;;;411.03;201.93;;;;;;;;;;5026992;28;20265;-56
2022/10/27 07:02:01;;;;;;;386.83;190.73;;;;;;;;;;5027413;28;20207;-57
2022/10/27 07:04:27;;;;;;;365.60;179.07;;;;;;;;;;5026801;28;20208;-57
2022/10/27 07:06:54;;;;;;;321.63;155.43;;;;;;;;;;5027734;28;20291;-57
2022/10/27 07:09:20;;;;;;;407.33;196.07;;;;;;;;;;5026982;28;20625;-57
2022/10/27 07:11:46;;;;;;;427.23;210.20;;;;;;;;;;5025409;28;20215;-57
2022/10/27 07:14:11;;;;;;;314.10;153.57;;;;;;;;;;5024531;28;20227;-57
2022/10/27 07:16:37;;;;;;;447.97;221.47;;;;;;;;;;5024880;28;20220;-57
2022/10/27 07:19:03;;;;;;;365.37;176.47;;;;;;;;;;5026852;28;20212;-57
2022/10/27 07:21:29;;;;;;;371.17;174.17;;;;;;;;;;5027356;28;20532;-56
2022/10/27 07:23:55;;;;;;;353.20;169.17;;;;;;;;;;5025822;28;20230;-57
2022/10/27 07:26:21;;;;;;;368.33;176.63;;;;;;;;;;5026257;28;20219;-56
2022/10/27 07:28:47;;;;;;;445.63;217.30;;;;;;;;;;5027381;28;20212;-56
2022/10/27 07:31:13;;;;;;;395.53;188.10;;;;;;;;;;5027116;28;20556;-57
2022/10/27 07:33:39;;;;;;;376.50;179.67;;;;;;;;;;5027393;28;20221;-56
2022/10/27 07:36:05;;;;;;;348.13;166.70;;;;;;;;;;5026400;28;20216;-56
2022/10/27 07:38:31;;;;;;;409.90;197.70;;;;;;;;;;5026581;28;20251;-56
2022/10/27 07:41:00;;;;;;;393.33;191.73;;;;;;;;;;5025910;28;20704;-56
2022/10/27 07:43:26;;;;;;;434.57;213.20;;;;;;;;;;5026871;28;20719;-57
2022/10/27 07:45:52;;;;;;;323.80;156.77;;;;;;;;;;5022870;28;20735;-58
2022/10/27 07:48:18;;;;;;;381.80;184.53;;;;;;;;;;5021846;28;20184;-57
2022/10/27 07:50:44;;;;;;;415.43;200.77;;;;;;;;;;5026567;28;20241;-56
2022/10/27 07:53:14;;;;;;;411.27;197.43;;;;;;;;;;5027828;28;20220;-57
2022/10/27 07:55:40;;;;;;;431.53;213.93;;;;;;;;;;5013601;28;20248;-57
2022/10/27 07:58:12;;;;;;;377.53;181.63;;;;;;;;;;5012864;28;20462;-57
2022/10/27 08:00:40;;;;;;;402.33;196.23;;;;;;;;;;5026870;28;20242;-57
2022/10/27 08:03:06;;;;;;;353.33;169.70;;;;;;;;;;5027548;28;20176;-57
2022/10/27 08:05:33;;;;;;;356.37;170.93;;;;;;;;;;5027024;28;20216;-57
2022/10/27 08:08:00;;;;;;;374.83;178.40;;;;;;;;;;5027126;28;20216;-57
2022/10/27 08:10:26;;;;;;;341.53;161.97;;;;;;;;;;5026557;28;20216;-57
2022/10/27 08:12:52;;;;;;;422.63;212.30;;;;;;;;;;5026847;28;20208;-57
2022/10/27 08:15:18;;;;;;;368.60;178.83;;;;;;;;;;5026624;28;20229;-58
2022/10/27 08:17:44;;;;;;;397.70;195.67;;;;;;;;;;5026790;28;20707;-57
2022/10/27 08:20:10;;;;;;;328.47;157.63;;;;;;;;;;5026427;28;20584;-57
2022/10/27 08:22:36;;;;;;;388.77;186.13;;;;;;;;;;5026228;28;20223;-56
2022/10/27 08:25:03;;;;;;;454.07;221.03;;;;;;;;;;5017880;28;20216;-56
2022/10/27 08:27:31;;;;;;;461.33;231.23;;;;;;;;;;5008922;28;20347;-57
2022/10/27 08:29:57;;;;;;;398.33;188.17;;;;;;;;;;5030102;28;20287;-57
2022/10/27 08:32:23;;;;;;;389.10;188.57;;;;;;;;;;5030320;28;20239;-56
2022/10/27 08:34:49;;;;;;;449.73;225.07;;;;;;;;;;5029242;28;20647;-56
2022/10/27 08:37:15;;;;;;;403.23;195.03;;;;;;;;;;5023437;23;20227;-71
2022/10/27 08:39:41;;;;;;;506.60;255.90;;;;;;;;;;5009904;28;20189;-71
2022/10/27 08:42:14;;;;;;;486.57;244.57;;;;;;;;;;4989952;28;20176;-71
2022/10/27 08:44:46;;;;;;;483.77;238.27;;;;;;;;;;5005776;28;20213;-71
2022/10/27 08:47:18;;;;;;;402.47;190.60;;;;;;;;;;5029861;28;20212;-71
2022/10/27 08:49:48;;;;;;;487.10;236.20;;;;;;;;;;4995471;28;20720;-71
2022/10/27 08:52:20;;;;;;;516.10;261.27;;;;;;;;;;5009073;28;20250;-71
2022/10/27 08:54:48;;;;;;;401.77;194.23;;;;;;;;;;5011656;28;20224;-71
2022/10/27 08:57:24;;;;;;;464.97;232.10;;;;;;;;;;5002097;28;20205;-71
2022/10/27 08:59:54;;;;;;;445.67;216.27;;;;;;;;;;5016191;28;20233;-71
2022/10/27 09:02:20;;;;;;;513.10;254.23;;;;;;;;;;5027188;28;20211;-71
2022/10/27 09:04:55;;;;;;;545.23;282.30;;;;;;;;;;5012125;28;20299;-72
2022/10/27 09:07:26;;;;;;;364.93;178.03;;;;;;;;;;5016071;28;20219;-71
2022/10/27 09:09:54;;;;;;;495.23;251.00;;;;;;;;;;5011425;28;20243;-72
2022/10/27 09:12:42;;;;;;;493.70;244.80;;;;;;;;;;4996997;28;20290;-72
2022/10/27 09:15:22;;;;;;;448.87;221.53;;;;;;;;;;5005389;28;20240;-71
2022/10/27 09:17:58;;;;;;;457.77;225.00;;;;;;;;;;5044206;28;20261;-71
2022/10/27 09:20:28;;;;;;;378.07;180.90;;;;;;;;;;5034136;28;20218;-71
2022/10/27 09:22:57;;;;;;;338.20;163.40;;;;;;;;;;5042998;28;20226;-71
2022/10/27 09:25:23;;;;;;;400.93;196.83;;;;;;;;;;5041213;28;20215;-71
2022/10/27 09:27:51;;;;;;;475.00;239.40;;;;;;;;;;5036560;28;20238;-71
2022/10/27 09:30:17;;;;;;;447.93;225.43;;;;;;;;;;5015329;28;20224;-71
2022/10/27 09:32:49;;;;;;;444.23;223.60;;;;;;;;;;5017843;28;20608;-71
2022/10/27 09:35:23;;;;;;;365.20;179.00;;;;;;;;;;5013396;28;20314;-70
2022/10/27 09:37:50;;;;;;;510.03;266.03;;;;;;;;;;5012060;28;20264;-70
2022/10/27 09:40:20;;;;;;;484.17;243.93;;;;;;;;;;5042772;28;20684;-70
2022/10/27 09:42:47;;;;;;;473.63;240.80;;;;;;;;;;5031022;28;20535;-70
2022/10/27 09:45:24;;;;;;;447.40;221.23;;;;;;;;;;5037639;28;20186;-71
2022/10/27 09:47:52;;;;;;;561.63;279.67;;;;;;;;;;4999887;28;20226;-72
2022/10/27 09:50:28;;;;;;;518.97;268.43;;;;;;;;;;4993970;28;20224;-72
2022/10/27 09:52:55;;;;;;;571.60;300.80;;;;;;;;;;5017795;28;20223;-71
2022/10/27 09:55:21;;;;;;;547.60;284.87;;;;;;;;;;5009604;28;20221;-71
2022/10/27 09:57:48;;;;;;;371.67;186.53;;;;;;;;;;5003777;28;21062;-71
2022/10/27 10:00:20;;;;;;;444.03;218.87;;;;;;;;;;4997931;28;20177;-71
2022/10/27 10:03:06;;;;;;;414.63;203.47;;;;;;;;;;4990441;28;20330;-71
2022/10/27 10:05:34;;;;;;;550.23;281.03;;;;;;;;;;5011801;28;20223;-71
2022/10/27 10:08:11;;;;;;;503.03;254.70;;;;;;;;;;4990688;28;20266;-69
2022/10/27 10:10:38;;;;;;;462.57;235.93;;;;;;;;;;5006557;28;20216;-69
2022/10/27 10:13:08;;;;;;;437.23;217.03;;;;;;;;;;5002212;28;20224;-71
2022/10/27 10:15:42;;;;;;;496.00;247.67;;;;;;;;;;4999124;28;20347;-70
2022/10/27 10:18:25;;;;;;;470.03;233.40;;;;;;;;;;5021277;28;20179;-69
2022/10/27 10:20:59;;;;;;;418.43;206.80;;;;;;;;;;5010299;28;20259;-69
2022/10/27 10:23:26;;;;;;;472.80;239.63;;;;;;;;;;4997592;28;20236;-69
2022/10/27 10:25:53;;;;;;;463.00;231.38;;;;;;;;;;5008298;28;20235;-68
2022/10/27 10:28:30;;;;;;;470.08;241.25;;;;;;;;;;5018124;28;20227;-69
2022/10/27 10:30:57;;;;;;;420.47;213.23;;;;;;;;;;5010734;28;20722;-69
2022/10/27 10:33:24;;;;;;;482.30;243.43;;;;;;;;;;4985713;28;20642;-71
2022/10/27 10:35:51;;;;;;;392.70;199.68;;;;;;;;;;4985760;28;20220;-71
2022/10/27 10:38:25;;;;;;;444.93;226.33;;;;;;;;;;5000552;28;20208;-71
2022/10/27 10:41:19;;;;;;;368.25;187.35;;;;;;;;;;5009315;28;20739;-71
2022/10/27 10:43:45;;;;;;;510.77;258.20;;;;;;;;;;4995797;28;20220;-71
2022/10/27 10:46:24;;;;;;;391.17;198.40;;;;;;;;;;5001316;28;20228;-70
2022/10/27 10:48:55;;;;;;;496.05;255.20;;;;;;;;;;4981662;28;21471;-70
2022/10/27 10:51:32;;;;;;;506.23;253.40;;;;;;;;;;4989178;28;20771;-71
2022/10/27 10:54:08;;;;;;;429.13;222.20;;;;;;;;;;5024115;28;20232;-71
2022/10/27 10:56:36;;;;;;;479.40;247.40;;;;;;;;;;4996747;28;21199;-71
2022/10/27 10:59:04;;;;;;;484.83;247.67;;;;;;;;;;4991991;28;20299;-71
2022/10/27 11:01:45;;;;;;;527.43;277.33;;;;;;;;;;4982665;28;20244;-72
2022/10/27 11:04:17;;;;;;;538.73;285.73;;;;;;;;;;4988649;28;21176;-71
2022/10/27 11:07:02;;;;;;;478.63;246.83;;;;;;;;;;4981595;28;20236;-71
2022/10/27 11:09:32;;;;;;;416.80;214.60;;;;;;;;;;5005402;28;20180;-71
2022/10/27 11:11:59;;;;;;;496.13;259.02;;;;;;;;;;4992229;28;21463;-73
2022/10/27 11:14:25;;;;;;;510.20;264.97;;;;;;;;;;5003847;28;20672;-71
2022/10/27 11:16:53;;;;;;;487.85;257.10;;;;;;;;;;4997570;28;20235;-72
2022/10/27 11:19:19;;;;;;;475.13;247.33;;;;;;;;;;5017843;28;20208;-71
2022/10/27 11:21:49;;;;;;;374.23;200.63;;;;;;;;;;5006151;28;20216;-71
2022/10/27 11:24:20;;;;;;;641.37;360.07;;;;;;;;;;5026066;28;20207;-71
2022/10/27 11:26:58;;;;;;;428.70;219.10;;;;;;;;;;5026322;28;20922;-71
2022/10/27 11:29:34;;;;;;;502.87;264.17;;;;;;;;;;5019114;28;20790;-72
2022/10/27 11:32:09;;;;;;;447.90;229.37;;;;;;;;;;4998470;28;20294;-72
2022/10/27 11:34:54;;;;;;;468.48;240.43;;;;;;;;;;5004267;28;20212;-72
2022/10/27 11:37:43;;;;;;;369.63;196.20;;;;;;;;;;5037539;28;20226;-72
2022/10/27 11:40:26;;;;;;;508.10;269.53;;;;;;;;;;5011717;28;21259;-72
2022/10/27 11:43:11;;;;;;;456.25;244.48;;;;;;;;;;5015684;28;20208;-72
2022/10/27 11:45:37;;;;;;;446.83;239.57;;;;;;;;;;5024252;28;20180;-72
2022/10/27 11:48:23;;;;;;;548.13;293.57;;;;;;;;;;5013824;28;20192;-72
2022/10/27 11:51:00;;;;;;;403.60;216.27;;;;;;;;;;5021672;28;20650;-72
2022/10/27 11:53:26;;;;;;;404.10;217.27;;;;;;;;;;5015339;28;20715;-72
2022/10/27 11:56:11;;;;;;;441.95;242.45;;;;;;;;;;5015073;28;20226;-72
2022/10/27 11:58:53;;;;;;;495.77;270.48;;;;;;;;;;5024680;28;20207;-71
2022/10/27 12:01:22;;;;;;;448.65;242.10;;;;;;;;;;5018946;28;21332;-71
2022/10/27 12:04:04;;;;;;;469.75;255.60;;;;;;;;;;5022506;28;20218;-71
2022/10/27 12:06:35;;;;;;;564.38;313.98;;;;;;;;;;4999280;28;20599;-72
2022/10/27 12:09:19;;;;;;;436.95;238.52;;;;;;;;;;5037198;28;20376;-72
2022/10/27 12:12:08;;;;;;;446.05;240.80;;;;;;;;;;5034305;28;20223;-72
2022/10/27 12:14:37;;;;;;;497.40;271.77;;;;;;;;;;5026821;28;20299;-71
2022/10/27 12:17:03;;;;;;;505.02;279.73;;;;;;;;;;5037131;28;20211;-71
2022/10/27 12:19:38;;;;;;;536.40;294.00;;;;;;;;;;5024765;28;20226;-72
2022/10/27 12:22:13;;;;;;;458.85;258.30;;;;;;;;;;5005086;28;20285;-72
2022/10/27 12:24:43;;;;;;;387.65;213.48;;;;;;;;;;5032080;28;20230;-71
2022/10/27 12:27:13;;;;;;;459.65;255.65;;;;;;;;;;5038714;28;20191;-71
2022/10/27 12:29:42;;;;;;;523.78;287.13;;;;;;;;;;5025638;28;20208;-72
2022/10/27 12:32:12;;;;;;;434.67;238.27;;;;;;;;;;5009960;28;20346;-72
2022/10/27 12:34:49;;;;;;;464.17;255.27;;;;;;;;;;4995605;28;20562;-72
2022/10/27 12:37:38;;;;;;;427.58;232.85;;;;;;;;;;5017817;28;20219;-71
2022/10/27 12:40:11;;;;;;;569.70;316.58;;;;;;;;;;4999095;28;20295;-72
2022/10/27 12:42:57;;;;;;;511.60;279.63;;;;;;;;;;5005466;28;20223;-72
2022/10/27 12:45:29;;;;;;;388.25;217.32;;;;;;;;;;5026663;28;20183;-71
2022/10/27 12:47:55;;;;;;;478.85;269.10;;;;;;;;;;5035729;28;20266;-72
2022/10/27 12:50:27;;;;;;;427.60;249.40;;;;;;;;;;5014780;28;20299;-72
2022/10/27 12:53:09;;;;;;;449.90;267.08;;;;;;;;;;5016367;28;20208;-72
2022/10/27 12:55:55;;;;;;;462.38;281.95;;;;;;;;;;5010646;28;20501;-72
2022/10/27 12:58:30;;;;;;;463.65;292.33;;;;;;;;;;5027902;28;20207;-72
2022/10/27 13:01:02;;;;;;;482.80;303.13;;;;;;;;;;5020774;28;20699;-72
2022/10/27 13:03:31;;;;;;;431.45;288.08;;;;;;;;;;5022624;28;20302;-72
2022/10/27 13:06:16;;;;;;;433.45;285.85;;;;;;;;;;5033608;28;20207;-72
2022/10/27 13:08:42;;;;;;;481.30;328.80;;;;;;;;;;5000595;28;20377;-72
2022/10/27 13:11:27;;;;;;;499.25;352.33;;;;;;;;;;5005257;28;20203;-72
2022/10/27 13:14:11;;;;;;;445.52;327.27;;;;;;;;;;5023431;28;20703;-72
2022/10/27 13:16:43;;;;;;;406.50;292.15;;;;;;;;;;5017258;28;20230;-72
2022/10/27 13:19:26;;;;;;;476.50;356.60;;;;;;;;;;5022489;28;20208;-72
2022/10/27 13:22:00;;;;;;;458.88;353.95;;;;;;;;;;5009757;28;20211;-73
2022/10/27 13:24:37;;;;;;;384.35;312.05;;;;;;;;;;5015679;28;20271;-73
2022/10/27 13:27:18;;;;;;;363.58;300.98;;;;;;;;;;5017883;28;20206;-72
2022/10/27 13:29:50;;;;;;;482.67;348.00;;;;;;;;;;5015201;28;20222;-73
2022/10/27 13:32:21;;;;;;;426.58;315.92;;;;;;;;;;5012232;28;20221;-72
2022/10/27 13:35:17;;;;;;;451.73;328.13;;;;;;;;;;5006126;28;20266;-73
2022/10/27 13:37:47;;;;;;;453.50;327.88;;;;;;;;;;5006110;28;20217;-72
2022/10/27 13:40:16;;;;;;;570.45;397.20;;;;;;;;;;5002428;28;20213;-73
2022/10/27 13:42:43;;;;;;;422.30;311.50;;;;;;;;;;4976809;28;20220;-72
2022/10/27 13:45:27;;;;;;;478.13;354.17;;;;;;;;;;4960555;28;20193;-73
2022/10/27 13:48:16;;;;;;;493.33;356.42;;;;;;;;;;4987755;28;20865;-72
2022/10/27 13:50:43;;;;;;;489.58;353.25;;;;;;;;;;4991914;28;20211;-73
2022/10/27 13:53:15;;;;;;;462.95;336.27;;;;;;;;;;5004191;28;21170;-72
2022/10/27 13:55:47;;;;;;;441.05;321.17;;;;;;;;;;4982369;28;20208;-72
2022/10/27 13:58:19;;;;;;;366.50;280.88;;;;;;;;;;5012036;28;20816;-71
2022/10/27 14:00:47;;;;;;;462.10;338.35;;;;;;;;;;5004572;28;20240;-72
2022/10/27 14:03:17;;;;;;;467.00;336.45;;;;;;;;;;5023799;28;20175;-72
2022/10/27 14:05:44;;;;;;;460.67;331.95;;;;;;;;;;5033548;28;20682;-72
2022/10/27 14:08:18;;;;;;;390.55;292.13;;;;;;;;;;5020511;28;20208;-73